sensor_id;sensor_type;location;lat;lon;timestamp;temperature;humidity
26272;DHT22;13997;48.902;12.472;2022-12-01T04:54:24;0.80;2201.60
26272;DHT22;13997;48.902;12.472;2022-12-01T04:56:49;0.90;2201.60
26272;DHT22;13997;48.902;12.472;2022-12-01T04:59:16;0.90;2201.60
26272;DHT22;13997;48.902;12.472;2022-12-01T05:01:42;25.60;2201.60
26272;DHT22;13997;48.902;12.472;2022-12-01T05:04:10;25.60;2201.60
26272;DHT22;13997;48.902;12.472;2022-12-01T05:06:36;25.60;2201.60
26272;DHT22;13997;48.902;12.472;2022-12-01T05:09:02;25.60;2201.60
26272;DHT22;13997;48.902;12.472;2022-12-01T05:11:29;25.60;2201.60
26272;DHT22;13997;48.902;12.472;2022-12-01T05:13:55;0.90;2201.60
26272;DHT22;13997;48.902;12.472;2022-12-01T05:16:23;0.90;2201.60
26272;DHT22;13997;48.902;12.472;2022-12-01T05:18:51;0.80;2201.60
26272;DHT22;13997;48.902;12.472;2022-12-01T05:21:37;0.90;2201.60
26272;DHT22;13997;48.902;12.472;2022-12-01T05:24:04;0.90;2201.60
26272;DHT22;13997;48.902;12.472;2022-12-01T05:26:29;0.90;2201.60
26272;DHT22;13997;48.902;12.472;2022-12-01T05:28:55;0.90;2201.60
26272;DHT22;13997;48.902;12.472;2022-12-01T05:31:20;0.90;2201.60
26272;DHT22;13997;48.902;12.472;2022-12-01T05:33:46;0.90;2201.60
26272;DHT22;13997;48.902;12.472;2022-12-01T05:36:12;25.60;2201.60
26272;DHT22;13997;48.902;12.472;2022-12-01T05:38:37;25.60;2201.60
26272;DHT22;13997;48.902;12.472;2022-12-01T05:41:03;0.90;2201.60
26272;DHT22;13997;48.902;12.472;2022-12-01T05:43:29;0.90;2201.60
26272;DHT22;13997;48.902;12.472;2022-12-01T05:45:54;0.90;2201.60
26272;DHT22;13997;48.902;12.472;2022-12-01T05:48:20;0.90;2201.60
26272;DHT22;13997;48.902;12.472;2022-12-01T05:50:46;0.90;2201.60
26272;DHT22;13997;48.902;12.472;2022-12-01T05:53:12;0.90;2201.60
26272;DHT22;13997;48.902;12.472;2022-12-01T05:55:38;0.90;2201.60
26272;DHT22;13997;48.902;12.472;2022-12-01T05:58:04;25.60;2201.60
26272;DHT22;13997;48.902;12.472;2022-12-01T06:00:30;25.60;2201.60
26272;DHT22;13997;48.902;12.472;2022-12-01T06:02:55;0.90;2201.60
26272;DHT22;13997;48.902;12.472;2022-12-01T07:05:57;25.60;2201.60
26272;DHT22;13997;48.902;12.472;2022-12-01T07:08:24;25.60;2201.60
26272;DHT22;13997;48.902;12.472;2022-12-01T07:11:00;25.60;2201.60
26272;DHT22;13997;48.902;12.472;2022-12-01T07:13:26;25.60;2201.60
26272;DHT22;13997;48.902;12.472;2022-12-01T07:15:52;25.70;2201.60
26272;DHT22;13997;48.902;12.472;2022-12-01T07:18:17;25.70;2201.60
26272;DHT22;13997;48.902;12.472;2022-12-01T07:20:43;25.70;2201.60
26272;DHT22;13997;48.902;12.472;2022-12-01T07:23:08;25.70;2201.60
26272;DHT22;13997;48.902;12.472;2022-12-01T07:25:34;25.70;2201.60
26272;DHT22;13997;48.902;12.472;2022-12-01T07:28:00;25.80;2201.60
26272;DHT22;13997;48.902;12.472;2022-12-01T07:30:25;25.80;2201.60
26272;DHT22;13997;48.902;12.472;2022-12-01T07:32:51;25.90;2201.60
26272;DHT22;13997;48.902;12.472;2022-12-01T07:35:16;25.90;2201.60
26272;DHT22;13997;48.902;12.472;2022-12-01T07:37:42;25.90;2201.60
26272;DHT22;13997;48.902;12.472;2022-12-01T07:40:08;25.90;2201.60
26272;DHT22;13997;48.902;12.472;2022-12-01T07:42:34;25.90;2201.60
26272;DHT22;13997;48.902;12.472;2022-12-01T07:45:00;26.00;2201.60
26272;DHT22;13997;48.902;12.472;2022-12-01T07:47:26;26.00;2201.60
26272;DHT22;13997;48.902;12.472;2022-12-01T07:49:51;26.00;2201.60
26272;DHT22;13997;48.902;12.472;2022-12-01T07:52:17;26.00;2201.60
26272;DHT22;13997;48.902;12.472;2022-12-01T07:54:42;26.00;2201.60
26272;DHT22;13997;48.902;12.472;2022-12-01T07:57:08;26.10;2201.60
26272;DHT22;13997;48.902;12.472;2022-12-01T07:59:34;26.10;2201.60
26272;DHT22;13997;48.902;12.472;2022-12-01T08:01:59;26.10;2201.60
26272;DHT22;13997;48.902;12.472;2022-12-01T08:04:25;26.10;2201.60
26272;DHT22;13997;48.902;12.472;2022-12-01T08:06:51;26.10;2201.60
26272;DHT22;13997;48.902;12.472;2022-12-01T08:09:16;26.20;2201.60
26272;DHT22;13997;48.902;12.472;2022-12-01T08:11:42;26.20;2201.60
26272;DHT22;13997;48.902;12.472;2022-12-01T08:14:08;26.30;2201.60
26272;DHT22;13997;48.902;12.472;2022-12-01T08:16:33;26.30;2201.60
26272;DHT22;13997;48.902;12.472;2022-12-01T08:18:59;26.40;2201.60
26272;DHT22;13997;48.902;12.472;2022-12-01T08:21:24;26.40;2201.60
26272;DHT22;13997;48.902;12.472;2022-12-01T08:23:54;26.50;2201.60
26272;DHT22;13997;48.902;12.472;2022-12-01T08:26:21;51.20;2227.20
26272;DHT22;13997;48.902;12.472;2022-12-01T08:28:47;51.20;2227.20
26272;DHT22;13997;48.902;12.472;2022-12-01T08:31:15;51.30;2227.20
26272;DHT22;13997;48.902;12.472;2022-12-01T08:33:41;51.40;2227.20
26272;DHT22;13997;48.902;12.472;2022-12-01T08:36:06;51.40;2227.20
26272;DHT22;13997;48.902;12.472;2022-12-01T08:38:33;51.50;2227.20
26272;DHT22;13997;48.902;12.472;2022-12-01T08:41:03;51.50;2227.20
26272;DHT22;13997;48.902;12.472;2022-12-01T08:43:29;51.50;2227.20
26272;DHT22;13997;48.902;12.472;2022-12-01T08:46:01;51.60;2227.20
26272;DHT22;13997;48.902;12.472;2022-12-01T08:48:27;51.60;2227.20
26272;DHT22;13997;48.902;12.472;2022-12-01T08:51:04;51.60;2227.20
26272;DHT22;13997;48.902;12.472;2022-12-01T08:53:31;51.70;2227.20
26272;DHT22;13997;48.902;12.472;2022-12-01T08:56:02;51.80;2227.20
26272;DHT22;13997;48.902;12.472;2022-12-01T08:58:28;51.80;2227.20
26272;DHT22;13997;48.902;12.472;2022-12-01T09:01:02;51.90;2227.20
26272;DHT22;13997;48.902;12.472;2022-12-01T09:03:27;51.90;2227.20
26272;DHT22;13997;48.902;12.472;2022-12-01T09:05:53;52.00;2227.20
26272;DHT22;13997;48.902;12.472;2022-12-01T09:08:19;52.00;2227.20
26272;DHT22;13997;48.902;12.472;2022-12-01T09:10:57;76.80;2227.20
26272;DHT22;13997;48.902;12.472;2022-12-01T09:13:26;76.90;2227.20
26272;DHT22;13997;48.902;12.472;2022-12-01T09:16:02;77.00;2227.20
26272;DHT22;13997;48.902;12.472;2022-12-01T09:18:28;77.20;2227.20
26272;DHT22;13997;48.902;12.472;2022-12-01T09:20:54;77.40;2227.20
26272;DHT22;13997;48.902;12.472;2022-12-01T09:23:20;77.50;2227.20
26272;DHT22;13997;48.902;12.472;2022-12-01T09:25:47;77.70;2227.20
26272;DHT22;13997;48.902;12.472;2022-12-01T09:28:13;102.40;2227.20
26272;DHT22;13997;48.902;12.472;2022-12-01T09:30:39;77.70;2227.20
26272;DHT22;13997;48.902;12.472;2022-12-01T09:33:04;77.70;2227.20
26272;DHT22;13997;48.902;12.472;2022-12-01T09:35:30;77.60;2227.20
26272;DHT22;13997;48.902;12.472;2022-12-01T09:37:57;77.50;2227.20
26272;DHT22;13997;48.902;12.472;2022-12-01T09:40:27;77.50;2227.20
26272;DHT22;13997;48.902;12.472;2022-12-01T09:42:53;77.40;2227.20
26272;DHT22;13997;48.902;12.472;2022-12-01T09:45:25;77.40;2227.20
26272;DHT22;13997;48.902;12.472;2022-12-01T09:47:53;77.40;2227.20
26272;DHT22;13997;48.902;12.472;2022-12-01T09:50:22;77.50;2227.20
26272;DHT22;13997;48.902;12.472;2022-12-01T09:53:00;77.60;2227.20
26272;DHT22;13997;48.902;12.472;2022-12-01T09:55:29;102.40;2227.20
26272;DHT22;13997;48.902;12.472;2022-12-01T09:57:57;102.60;2227.20
26272;DHT22;13997;48.902;12.472;2022-12-01T10:00:24;102.70;2227.20
26272;DHT22;13997;48.902;12.472;2022-12-01T10:05:56;102.70;2227.20
26272;DHT22;13997;48.902;12.472;2022-12-01T10:08:25;102.70;2227.20
26272;DHT22;13997;48.902;12.472;2022-12-01T10:10:54;102.60;2227.20
26272;DHT22;13997;48.902;12.472;2022-12-01T10:13:26;102.60;2227.20
26272;DHT22;13997;48.902;12.472;2022-12-01T10:16:09;102.60;2227.20
26272;DHT22;13997;48.902;12.472;2022-12-01T10:24:27;102.50;2227.20
26272;DHT22;13997;48.902;12.472;2022-12-01T10:35:15;77.50;2227.20
26272;DHT22;13997;48.902;12.472;2022-12-01T10:37:42;77.50;2227.20
26272;DHT22;13997;48.902;12.472;2022-12-01T10:40:14;77.50;2227.20
26272;DHT22;13997;48.902;12.472;2022-12-01T10:42:42;77.50;2227.20
26272;DHT22;13997;48.902;12.472;2022-12-01T10:45:24;77.50;2227.20
26272;DHT22;13997;48.902;12.472;2022-12-01T10:50:34;77.60;2227.20
26272;DHT22;13997;48.902;12.472;2022-12-01T10:53:00;77.60;2227.20
26272;DHT22;13997;48.902;12.472;2022-12-01T10:55:29;77.60;2227.20
26272;DHT22;13997;48.902;12.472;2022-12-01T10:57:58;77.60;2227.20
26272;DHT22;13997;48.902;12.472;2022-12-01T11:00:27;77.60;2227.20
26272;DHT22;13997;48.902;12.472;2022-12-01T11:02:53;77.60;2227.20
26272;DHT22;13997;48.902;12.472;2022-12-01T11:05:26;77.60;2227.20
26272;DHT22;13997;48.902;12.472;2022-12-01T11:07:53;77.70;2227.20
26272;DHT22;13997;48.902;12.472;2022-12-01T11:10:30;102.40;2227.20
26272;DHT22;13997;48.902;12.472;2022-12-01T11:12:57;102.50;2227.20
26272;DHT22;13997;48.902;12.472;2022-12-01T11:15:27;102.60;2227.20
26272;DHT22;13997;48.902;12.472;2022-12-01T11:18:19;102.70;2227.20
26272;DHT22;13997;48.902;12.472;2022-12-01T11:20:44;102.70;2227.20
26272;DHT22;13997;48.902;12.472;2022-12-01T11:26:08;102.60;2227.20
26272;DHT22;13997;48.902;12.472;2022-12-01T11:28:35;102.60;2227.20
26272;DHT22;13997;48.902;12.472;2022-12-01T11:31:04;102.70;2227.20
26272;DHT22;13997;48.902;12.472;2022-12-01T11:33:53;102.80;2227.20
26272;DHT22;13997;48.902;12.472;2022-12-01T11:36:44;102.70;2227.20
26272;DHT22;13997;48.902;12.472;2022-12-01T11:39:22;102.80;2227.20
26272;DHT22;13997;48.902;12.472;2022-12-01T11:41:59;102.80;2227.20
26272;DHT22;13997;48.902;12.472;2022-12-01T11:44:25;102.90;2227.20
26272;DHT22;13997;48.902;12.472;2022-12-01T11:46:52;102.90;2227.20
26272;DHT22;13997;48.902;12.472;2022-12-01T11:49:24;103.00;2227.20
26272;DHT22;13997;48.902;12.472;2022-12-01T11:51:49;103.10;2227.20
26272;DHT22;13997;48.902;12.472;2022-12-01T11:54:24;103.20;2227.20
26272;DHT22;13997;48.902;12.472;2022-12-01T11:56:51;103.30;2227.20
26272;DHT22;13997;48.902;12.472;2022-12-01T11:59:22;103.30;2227.20
26272;DHT22;13997;48.902;12.472;2022-12-01T12:12:36;103.30;2227.20
26272;DHT22;13997;48.902;12.472;2022-12-01T12:15:34;103.30;2227.20
26272;DHT22;13997;48.902;12.472;2022-12-01T12:18:23;103.30;2227.20
26272;DHT22;13997;48.902;12.472;2022-12-01T12:32:53;103.30;2227.20
26272;DHT22;13997;48.902;12.472;2022-12-01T12:34:58;103.30;2227.20
26272;DHT22;13997;48.902;12.472;2022-12-01T12:37:59;128.00;2252.80
26272;DHT22;13997;48.902;12.472;2022-12-01T12:46:16;128.10;2252.80
26272;DHT22;13997;48.902;12.472;2022-12-01T12:48:58;128.10;2252.80
26272;DHT22;13997;48.902;12.472;2022-12-01T12:51:40;128.10;2252.80
26272;DHT22;13997;48.902;12.472;2022-12-01T12:56:45;128.20;2252.80
26272;DHT22;13997;48.902;12.472;2022-12-01T13:02:11;128.20;2252.80
26272;DHT22;13997;48.902;12.472;2022-12-01T13:04:47;128.20;2252.80
26272;DHT22;13997;48.902;12.472;2022-12-01T13:07:44;128.30;2252.80
26272;DHT22;13997;48.902;12.472;2022-12-01T13:10:22;128.40;2252.80
26272;DHT22;13997;48.902;12.472;2022-12-01T13:13:41;128.40;2252.80
26272;DHT22;13997;48.902;12.472;2022-12-01T13:15:41;128.40;2252.80
26272;DHT22;13997;48.902;12.472;2022-12-01T13:18:36;128.40;2252.80
26272;DHT22;13997;48.902;12.472;2022-12-01T13:21:02;128.40;2252.80
26272;DHT22;13997;48.902;12.472;2022-12-01T13:23:31;128.40;2252.80
26272;DHT22;13997;48.902;12.472;2022-12-01T13:25:59;128.40;2252.80
26272;DHT22;13997;48.902;12.472;2022-12-01T13:28:28;128.40;2252.80
26272;DHT22;13997;48.902;12.472;2022-12-01T13:31:10;128.40;2252.80
26272;DHT22;13997;48.902;12.472;2022-12-01T15:39:48;128.10;2252.80
26272;DHT22;13997;48.902;12.472;2022-12-01T18:19:08;103.30;2227.20
26272;DHT22;13997;48.902;12.472;2022-12-01T18:21:33;103.30;2227.20
26272;DHT22;13997;48.902;12.472;2022-12-01T18:24:01;103.30;2227.20
26272;DHT22;13997;48.902;12.472;2022-12-01T18:26:29;103.30;2227.20
26272;DHT22;13997;48.902;12.472;2022-12-01T18:29:22;103.30;2227.20
26272;DHT22;13997;48.902;12.472;2022-12-01T18:31:57;103.20;2227.20
26272;DHT22;13997;48.902;12.472;2022-12-01T18:34:24;103.20;2227.20
26272;DHT22;13997;48.902;12.472;2022-12-01T18:36:50;103.20;2227.20
26272;DHT22;13997;48.902;12.472;2022-12-01T18:39:16;103.20;2227.20
26272;DHT22;13997;48.902;12.472;2022-12-01T18:41:41;103.20;2227.20
26272;DHT22;13997;48.902;12.472;2022-12-01T18:44:07;103.20;2227.20
26272;DHT22;13997;48.902;12.472;2022-12-01T18:46:33;103.20;2227.20
26272;DHT22;13997;48.902;12.472;2022-12-01T18:48:59;103.20;2227.20
26272;DHT22;13997;48.902;12.472;2022-12-01T18:51:28;103.20;2227.20
26272;DHT22;13997;48.902;12.472;2022-12-01T18:53:55;103.20;2227.20
26272;DHT22;13997;48.902;12.472;2022-12-01T18:56:21;103.30;2227.20
26272;DHT22;13997;48.902;12.472;2022-12-01T18:58:46;103.30;2227.20
26272;DHT22;13997;48.902;12.472;2022-12-01T19:01:20;103.30;2227.20
26272;DHT22;13997;48.902;12.472;2022-12-01T19:03:46;103.30;2227.20
26272;DHT22;13997;48.902;12.472;2022-12-01T19:06:12;103.30;2227.20
26272;DHT22;13997;48.902;12.472;2022-12-01T19:08:38;103.30;2227.20
26272;DHT22;13997;48.902;12.472;2022-12-01T19:11:05;103.20;2227.20
26272;DHT22;13997;48.902;12.472;2022-12-01T19:13:32;103.20;2227.20
26272;DHT22;13997;48.902;12.472;2022-12-01T19:15:58;103.20;2227.20
26272;DHT22;13997;48.902;12.472;2022-12-01T19:18:24;103.20;2227.20
26272;DHT22;13997;48.902;12.472;2022-12-01T19:20:49;103.20;2227.20
26272;DHT22;13997;48.902;12.472;2022-12-01T19:23:15;103.20;2227.20
26272;DHT22;13997;48.902;12.472;2022-12-01T19:25:41;103.20;2227.20
26272;DHT22;13997;48.902;12.472;2022-12-01T19:28:07;103.20;2227.20
26272;DHT22;13997;48.902;12.472;2022-12-01T19:30:33;103.10;2227.20
26272;DHT22;13997;48.902;12.472;2022-12-01T19:32:58;103.10;2227.20
26272;DHT22;13997;48.902;12.472;2022-12-01T19:35:24;103.00;2227.20
26272;DHT22;13997;48.902;12.472;2022-12-01T19:37:50;103.00;2227.20
26272;DHT22;13997;48.902;12.472;2022-12-01T19:40:17;103.00;2227.20
26272;DHT22;13997;48.902;12.472;2022-12-01T19:42:42;103.00;2227.20
26272;DHT22;13997;48.902;12.472;2022-12-01T20:55:54;102.80;2227.20
26272;DHT22;13997;48.902;12.472;2022-12-01T21:05:04;102.90;2227.20
26272;DHT22;13997;48.902;12.472;2022-12-01T21:07:30;102.90;2227.20
26272;DHT22;13997;48.902;12.472;2022-12-01T21:09:56;102.90;2227.20
26272;DHT22;13997;48.902;12.472;2022-12-01T21:12:21;103.00;2227.20
26272;DHT22;13997;48.902;12.472;2022-12-01T21:15:20;103.00;2227.20
26272;DHT22;13997;48.902;12.472;2022-12-01T21:18:01;103.00;2227.20
26272;DHT22;13997;48.902;12.472;2022-12-01T21:20:32;103.00;2227.20
26272;DHT22;13997;48.902;12.472;2022-12-01T21:23:14;103.00;2227.20
26272;DHT22;13997;48.902;12.472;2022-12-01T21:25:40;103.00;2227.20
26272;DHT22;13997;48.902;12.472;2022-12-01T21:28:20;103.00;2227.20
26272;DHT22;13997;48.902;12.472;2022-12-01T21:30:48;103.10;2227.20
26272;DHT22;13997;48.902;12.472;2022-12-01T21:35:49;103.10;2227.20
26272;DHT22;13997;48.902;12.472;2022-12-01T21:38:16;103.10;2227.20
26272;DHT22;13997;48.902;12.472;2022-12-01T21:40:42;103.10;2227.20
26272;DHT22;13997;48.902;12.472;2022-12-01T21:43:22;103.10;2227.20
26272;DHT22;13997;48.902;12.472;2022-12-01T21:45:59;103.00;2227.20
26272;DHT22;13997;48.902;12.472;2022-12-01T21:48:29;103.00;2227.20
26272;DHT22;13997;48.902;12.472;2022-12-01T21:51:01;103.00;2227.20
26272;DHT22;13997;48.902;12.472;2022-12-01T21:53:35;103.00;2227.20
26272;DHT22;13997;48.902;12.472;2022-12-01T21:56:00;103.00;2227.20
26272;DHT22;13997;48.902;12.472;2022-12-01T21:58:31;103.00;2227.20
26272;DHT22;13997;48.902;12.472;2022-12-01T22:01:02;103.00;2227.20
26272;DHT22;13997;48.902;12.472;2022-12-01T22:03:36;103.00;2227.20
26272;DHT22;13997;48.902;12.472;2022-12-01T22:08:35;103.10;2227.20
26272;DHT22;13997;48.902;12.472;2022-12-01T22:11:24;103.00;2227.20
26272;DHT22;13997;48.902;12.472;2022-12-01T22:16:42;103.00;2227.20
26272;DHT22;13997;48.902;12.472;2022-12-01T22:21:49;103.00;2227.20
26272;DHT22;13997;48.902;12.472;2022-12-01T22:24:26;103.00;2227.20
26272;DHT22;13997;48.902;12.472;2022-12-01T22:27:05;102.90;2227.20
26272;DHT22;13997;48.902;12.472;2022-12-01T22:29:39;102.90;2227.20
26272;DHT22;13997;48.902;12.472;2022-12-01T22:32:27;102.90;2227.20
26272;DHT22;13997;48.902;12.472;2022-12-01T22:34:59;102.80;2227.20
26272;DHT22;13997;48.902;12.472;2022-12-01T22:37:57;102.80;2227.20
26272;DHT22;13997;48.902;12.472;2022-12-01T22:41:08;102.80;2227.20
26272;DHT22;13997;48.902;12.472;2022-12-01T22:43:55;102.80;2227.20
26272;DHT22;13997;48.902;12.472;2022-12-01T22:46:50;102.80;2227.20
26272;DHT22;13997;48.902;12.472;2022-12-01T22:49:19;102.90;2227.20
26272;DHT22;13997;48.902;12.472;2022-12-01T22:52:24;102.90;2227.20
26272;DHT22;13997;48.902;12.472;2022-12-01T22:54:51;102.90;2227.20
26272;DHT22;13997;48.902;12.472;2022-12-01T22:59:51;103.00;2227.20
26272;DHT22;13997;48.902;12.472;2022-12-01T23:02:28;103.00;2227.20
26272;DHT22;13997;48.902;12.472;2022-12-01T23:04:58;103.00;2227.20
26272;DHT22;13997;48.902;12.472;2022-12-01T23:07:35;103.00;2227.20
26272;DHT22;13997;48.902;12.472;2022-12-01T23:10:06;103.00;2227.20
26272;DHT22;13997;48.902;12.472;2022-12-01T23:12:35;103.00;2227.20
26272;DHT22;13997;48.902;12.472;2022-12-01T23:15:34;103.00;2227.20
26272;DHT22;13997;48.902;12.472;2022-12-01T23:20:36;103.00;2227.20
26272;DHT22;13997;48.902;12.472;2022-12-01T23:23:09;103.00;2227.20
26272;DHT22;13997;48.902;12.472;2022-12-01T23:25:35;103.00;2227.20
26272;DHT22;13997;48.902;12.472;2022-12-01T23:28:05;103.00;2227.20
26272;DHT22;13997;48.902;12.472;2022-12-01T23:30:31;103.00;2227.20
26272;DHT22;13997;48.902;12.472;2022-12-01T23:33:19;103.00;2227.20
26272;DHT22;13997;48.902;12.472;2022-12-01T23:35:56;103.00;2227.20
26272;DHT22;13997;48.902;12.472;2022-12-01T23:38:44;103.00;2227.20
26272;DHT22;13997;48.902;12.472;2022-12-01T23:41:20;103.00;2227.20
26272;DHT22;13997;48.902;12.472;2022-12-01T23:43:46;103.00;2227.20
26272;DHT22;13997;48.902;12.472;2022-12-01T23:46:19;103.00;2227.20
26272;DHT22;13997;48.902;12.472;2022-12-01T23:49:00;103.00;2227.20
26272;DHT22;13997;48.902;12.472;2022-12-01T23:51:36;103.00;2227.20
26272;DHT22;13997;48.902;12.472;2022-12-01T23:54:11;103.00;2227.20
26272;DHT22;13997;48.902;12.472;2022-12-01T23:56:38;103.00;2227.20
26272;DHT22;13997;48.902;12.472;2022-12-01T23:59:07;103.00;2227.20
